Time;durP1;ratioP1;P1;durP2;ratioP2;P2;SDS_P1;SDS_P2;PMS_P1;PMS_P2;Temp;Humidity;BMP_temperature;BMP_pressure;BME280_temperature;BME280_humidity;BME280_pressure;Samples;Min_cycle;Max_cycle;Signal;HPM_P1;HPM_P2
2023/11/20 00:00:45;;;;;;;4.05;0.80;;;;;;;9.34;100.00;92896.13;2114817;28;20581;-78
2023/11/20 00:01:47;;;;;;;2.80;1.17;;;;;;;9.14;100.00;92898.84;2106720;28;20119;-76
2023/11/20 00:02:48;;;;;;;1.55;0.70;;;;;;;9.17;100.00;92910.59;2119971;27;20026;-76
2023/11/20 00:03:52;;;;;;;4.55;0.50;;;;;;;9.21;100.00;92900.59;2123651;27;20027;-75
2023/11/20 00:04:53;;;;;;;1.90;0.70;;;;;;;9.31;100.00;92894.31;2121943;27;20031;-77
2023/11/20 00:05:54;;;;;;;5.65;0.90;;;;;;;9.28;100.00;92900.47;2110497;28;20047;-79
2023/11/20 00:06:55;;;;;;;4.28;0.80;;;;;;;9.34;100.00;92901.47;2123200;27;20019;-79
2023/11/20 00:07:56;;;;;;;3.53;0.98;;;;;;;9.33;100.00;92886.66;2124334;27;20528;-77
2023/11/20 00:08:57;;;;;;;2.80;1.13;;;;;;;9.23;100.00;92895.63;2124256;27;20479;-77
2023/11/20 00:09:58;;;;;;;5.22;0.80;;;;;;;9.13;100.00;92897.34;2116007;27;20028;-76
2023/11/20 00:10:59;;;;;;;1.92;0.80;;;;;;;9.10;100.00;92906.16;2117151;27;20196;-78
2023/11/20 00:12:00;;;;;;;2.28;0.88;;;;;;;9.19;100.00;92901.03;2115552;27;20031;-76
2023/11/20 00:13:01;;;;;;;3.22;0.65;;;;;;;9.14;100.00;92900.75;2106677;28;20039;-77
2023/11/20 00:14:02;;;;;;;3.05;0.73;;;;;;;9.27;100.00;92902.38;2106863;28;20031;-79
2023/11/20 00:15:04;;;;;;;2.95;0.65;;;;;;;9.51;100.00;92904.94;2115082;28;20093;-78
2023/11/20 00:16:06;;;;;;;1.92;0.55;;;;;;;9.58;100.00;92897.53;2116931;27;20024;-77
2023/11/20 00:17:08;;;;;;;4.38;0.80;;;;;;;9.41;100.00;92893.34;2110597;27;20062;-77
2023/11/20 00:18:09;;;;;;;2.47;0.73;;;;;;;9.24;100.00;92899.78;2123567;27;20033;-76
2023/11/20 00:19:12;;;;;;;1.25;0.60;;;;;;;9.35;100.00;92897.66;2122988;27;20015;-77
2023/11/20 00:20:13;;;;;;;4.72;0.80;;;;;;;9.38;100.00;92894.16;2119582;27;20097;-76
2023/11/20 00:21:14;;;;;;;1.60;0.57;;;;;;;9.40;100.00;92885.75;2115937;27;20094;-78
2023/11/20 00:22:15;;;;;;;1.85;0.50;;;;;;;9.27;100.00;92905.06;2123448;27;20027;-77
2023/11/20 00:23:16;;;;;;;3.08;0.57;;;;;;;9.31;100.00;92897.72;2118867;27;20062;-77
2023/11/20 00:24:17;;;;;;;3.03;0.70;;;;;;;9.39;100.00;92895.66;2106547;28;20044;-78
2023/11/20 00:25:18;;;;;;;4.63;0.80;;;;;;;9.38;100.00;92902.16;2098247;28;20054;-76
2023/11/20 00:26:19;;;;;;;3.20;0.70;;;;;;;9.38;100.00;92899.50;2115159;28;20019;-77
2023/11/20 00:27:20;;;;;;;2.55;0.75;;;;;;;9.28;100.00;92898.56;2115568;28;20019;-78
2023/11/20 00:28:21;;;;;;;2.88;0.63;;;;;;;9.18;100.00;92893.44;2114882;28;20019;-76
2023/11/20 00:29:22;;;;;;;3.95;0.85;;;;;;;9.20;100.00;92883.09;2115510;28;20464;-79
2023/11/20 00:30:23;;;;;;;2.60;1.02;;;;;;;9.04;100.00;92889.91;2115654;28;20019;-77
2023/11/20 00:31:24;;;;;;;2.42;0.70;;;;;;;8.90;100.00;92887.47;2115163;28;20148;-79
2023/11/20 00:32:26;;;;;;;3.13;1.67;;;;;;;8.80;100.00;92877.78;2114788;28;20015;-78
2023/11/20 00:33:27;;;;;;;1.58;0.88;;;;;;;8.77;100.00;92881.25;2106734;28;20094;-78
2023/11/20 00:34:28;;;;;;;1.65;0.60;;;;;;;8.97;100.00;92882.03;2114393;27;20054;-78
2023/11/20 00:35:29;;;;;;;3.30;0.80;;;;;;;8.88;100.00;92881.81;2124291;27;20019;-78
2023/11/20 00:36:30;;;;;;;2.25;0.70;;;;;;;8.72;100.00;92892.41;2119120;27;20111;-78
2023/11/20 00:37:33;;;;;;;2.60;0.65;;;;;;;8.70;100.00;92894.72;2114929;28;20020;-78
2023/11/20 00:38:34;;;;;;;2.58;0.90;;;;;;;8.64;100.00;92880.38;2115124;28;20025;-79
2023/11/20 00:39:35;;;;;;;3.47;0.90;;;;;;;8.71;100.00;92894.31;2115552;28;20030;-77
2023/11/20 00:40:36;;;;;;;4.82;0.90;;;;;;;8.78;100.00;92885.44;2116857;27;20050;-78
2023/11/20 00:41:37;;;;;;;3.63;0.80;;;;;;;8.78;100.00;92890.75;2121198;27;20553;-79
2023/11/20 00:42:38;;;;;;;2.45;0.70;;;;;;;8.78;100.00;92896.09;2123156;27;20030;-78
2023/11/20 00:43:39;;;;;;;3.50;1.10;;;;;;;8.79;100.00;92877.03;2120170;27;20019;-78
2023/11/20 00:44:40;;;;;;;3.80;0.88;;;;;;;8.81;100.00;92889.94;2115460;27;20020;-78
2023/11/20 00:45:41;;;;;;;2.08;0.70;;;;;;;8.67;100.00;92884.88;2121167;27;20027;-76
2023/11/20 00:46:42;;;;;;;3.15;0.88;;;;;;;8.78;100.00;92875.53;2115792;27;20016;-78
2023/11/20 00:47:43;;;;;;;4.60;1.10;;;;;;;8.77;100.00;92873.28;2117564;27;20503;-77
2023/11/20 00:48:44;;;;;;;4.85;0.85;;;;;;;8.75;100.00;92881.69;2108269;27;20023;-77
2023/11/20 00:49:45;;;;;;;3.13;0.80;;;;;;;8.69;100.00;92885.22;2116516;27;20032;-79
2023/11/20 00:50:46;;;;;;;3.72;0.93;;;;;;;8.74;100.00;92869.53;2119241;27;20019;-78
2023/11/20 00:51:47;;;;;;;4.65;0.88;;;;;;;8.85;100.00;92877.31;2106546;28;20101;-78
2023/11/20 00:52:48;;;;;;;1.77;0.68;;;;;;;8.83;100.00;92892.97;2105580;28;20201;-76
2023/11/20 00:53:49;;;;;;;4.45;0.98;;;;;;;8.95;100.00;92896.91;2123274;27;20046;-77
2023/11/20 00:54:50;;;;;;;1.98;0.70;;;;;;;9.21;100.00;92889.94;2123015;27;20065;-77
2023/11/20 00:55:51;;;;;;;2.70;0.90;;;;;;;9.14;100.00;92871.44;2123433;27;20026;-78
2023/11/20 00:56:52;;;;;;;3.47;0.70;;;;;;;9.06;100.00;92876.91;2123980;27;20023;-78
2023/11/20 00:57:54;;;;;;;1.52;0.73;;;;;;;9.46;100.00;92889.44;2123781;27;20047;-78
2023/11/20 00:58:55;;;;;;;3.05;0.80;;;;;;;9.29;100.00;92876.03;2123862;27;20102;-77
2023/11/20 00:59:56;;;;;;;6.45;0.77;;;;;;;9.13;100.00;92883.25;2123212;27;20015;-77
2023/11/20 01:00:58;;;;;;;3.08;0.80;;;;;;;9.02;100.00;92888.78;2121184;27;20117;-78
2023/11/20 01:02:00;;;;;;;3.55;1.17;;;;;;;9.04;100.00;92886.44;2123246;27;20030;-77
2023/11/20 01:03:01;;;;;;;3.40;0.93;;;;;;;8.91;100.00;92885.56;2114645;28;20569;-77
2023/11/20 01:04:03;;;;;;;4.10;1.55;;;;;;;9.09;100.00;92880.66;2113773;28;20020;-78
2023/11/20 01:05:04;;;;;;;2.33;0.77;;;;;;;8.98;100.00;92888.84;2113084;28;20019;-78
2023/11/20 01:06:06;;;;;;;4.82;1.05;;;;;;;9.04;100.00;92881.13;2119677;27;20054;-77
2023/11/20 01:07:07;;;;;;;3.25;0.80;;;;;;;9.09;100.00;92880.66;2114660;28;20029;-78
2023/11/20 01:08:09;;;;;;;2.55;0.63;;;;;;;8.97;100.00;92891.94;2121993;27;20153;-77
2023/11/20 01:09:10;;;;;;;3.83;0.90;;;;;;;8.84;100.00;92891.81;2123268;27;20071;-77
2023/11/20 01:10:11;;;;;;;1.67;0.60;;;;;;;8.75;100.00;92886.25;2114506;28;20024;-79
2023/11/20 01:11:12;;;;;;;2.60;0.70;;;;;;;8.61;100.00;92894.53;2123089;27;20564;-78
2023/11/20 01:12:13;;;;;;;2.28;0.90;;;;;;;8.81;100.00;92896.03;2123603;27;20100;-77
2023/11/20 01:13:14;;;;;;;4.43;1.00;;;;;;;9.06;100.00;92890.22;2120971;27;20023;-78
2023/11/20 01:14:15;;;;;;;3.63;0.90;;;;;;;9.03;100.00;92891.03;2114596;28;20105;-77
2023/11/20 01:15:16;;;;;;;1.88;0.63;;;;;;;8.92;100.00;92898.50;2114678;28;20016;-77
2023/11/20 01:16:17;;;;;;;2.70;0.90;;;;;;;8.87;100.00;92890.22;2114090;28;20038;-78
2023/11/20 01:17:18;;;;;;;2.95;0.68;;;;;;;8.96;100.00;92906.44;2108502;27;20061;-79
2023/11/20 01:18:19;;;;;;;3.15;0.75;;;;;;;8.87;100.00;92892.88;2116072;27;20073;-79
2023/11/20 01:19:20;;;;;;;2.65;1.00;;;;;;;9.13;100.00;92894.69;2115772;27;20024;-78
2023/11/20 01:20:21;;;;;;;3.28;1.00;;;;;;;9.14;100.00;92896.19;2118319;27;20543;-77
2023/11/20 01:21:22;;;;;;;4.13;0.80;;;;;;;9.14;100.00;92893.50;2115172;28;20015;-76
2023/11/20 01:22:23;;;;;;;1.10;0.70;;;;;;;9.27;100.00;92898.97;2114330;28;20095;-78
2023/11/20 01:23:24;;;;;;;4.20;0.85;;;;;;;9.13;100.00;92897.34;2114655;28;20475;-77
2023/11/20 01:24:25;;;;;;;2.63;0.80;;;;;;;9.31;100.00;92895.06;2115056;28;20047;-78
2023/11/20 01:25:26;;;;;;;8.30;1.45;;;;;;;9.36;100.00;92901.09;2114341;28;20019;-78
2023/11/20 01:26:27;;;;;;;3.30;0.70;;;;;;;9.29;100.00;92889.38;2114593;28;20392;-77
2023/11/20 01:27:28;;;;;;;3.42;0.80;;;;;;;9.26;100.00;92890.22;2115225;28;20027;-78
2023/11/20 01:28:29;;;;;;;3.50;1.00;;;;;;;9.18;100.00;92896.09;2115286;28;20023;-79
2023/11/20 01:29:30;;;;;;;2.60;0.90;;;;;;;9.11;100.00;92905.00;2113791;28;20055;-77
2023/11/20 01:30:31;;;;;;;4.47;0.65;;;;;;;8.96;100.00;92901.09;2108388;28;20023;-78
2023/11/20 01:31:32;;;;;;;4.43;0.80;;;;;;;9.07;100.00;92902.38;2114527;28;20019;-78
2023/11/20 01:32:33;;;;;;;2.70;0.80;;;;;;;8.84;100.00;92905.13;2113827;28;20065;-79
2023/11/20 01:33:33;;;;;;;4.78;0.80;;;;;;;8.94;100.00;92906.09;2106084;28;20036;-79
2023/11/20 01:34:34;;;;;;;1.90;0.63;;;;;;;8.98;100.00;92917.44;2113751;28;20031;-79
2023/11/20 01:35:35;;;;;;;5.20;0.95;;;;;;;8.95;100.00;92894.25;2106126;28;20031;-79
2023/11/20 01:36:37;;;;;;;2.00;0.70;;;;;;;8.78;100.00;92904.09;2099695;28;20039;-77
2023/11/20 01:37:38;;;;;;;1.33;0.80;;;;;;;8.92;100.00;92903.84;2114438;27;20056;-78
2023/11/20 01:38:39;;;;;;;3.40;0.93;;;;;;;8.88;100.00;92897.81;2113968;28;20027;-77
2023/11/20 01:39:40;;;;;;;3.15;0.85;;;;;;;8.97;100.00;92907.94;2106152;28;20056;-77
2023/11/20 01:40:41;;;;;;;2.50;0.60;;;;;;;9.19;100.00;92900.28;2121056;27;20457;-78
2023/11/20 01:41:42;;;;;;;1.60;0.95;;;;;;;9.16;100.00;92909.84;2116604;28;20085;-78
2023/11/20 01:42:43;;;;;;;3.42;1.42;;;;;;;8.93;100.00;92912.59;2114294;28;20027;-78
2023/11/20 01:44:12;;;;;;;2.70;0.70;;;;;;;9.16;100.00;92899.16;2115114;28;20108;-78
2023/11/20 01:45:13;;;;;;;3.97;0.80;;;;;;;9.10;100.00;92900.06;2114998;27;20047;-79
2023/11/20 01:46:14;;;;;;;1.48;0.77;;;;;;;9.03;100.00;92899.03;2108543;28;20030;-80
2023/11/20 01:47:15;;;;;;;4.07;0.88;;;;;;;8.88;100.00;92903.16;2080137;27;20108;-76
2023/11/20 01:48:17;;;;;;;3.08;1.00;;;;;;;8.79;100.00;92902.94;2038552;28;20028;-78
2023/11/20 01:49:18;;;;;;;2.25;1.02;;;;;;;8.92;100.00;92893.19;2041617;28;20155;-76
2023/11/20 01:50:19;;;;;;;4.30;1.00;;;;;;;8.96;100.00;92893.84;2051712;27;20024;-78
2023/11/20 01:51:21;;;;;;;5.72;1.05;;;;;;;9.01;100.00;92901.38;2055969;27;20031;-78
2023/11/20 01:52:23;;;;;;;3.25;0.95;;;;;;;8.95;100.00;92894.25;2056664;27;20024;-77
2023/11/20 01:53:26;;;;;;;2.95;0.80;;;;;;;9.12;100.00;92882.50;2055359;28;20113;-77
2023/11/20 01:54:28;;;;;;;4.60;0.85;;;;;;;9.07;100.00;92877.66;2067864;27;20108;-77
2023/11/20 01:55:30;;;;;;;7.68;1.35;;;;;;;9.11;100.00;92885.56;2071107;27;20028;-77
2023/11/20 01:56:32;;;;;;;4.93;1.20;;;;;;;8.98;100.00;92886.19;2056321;28;20372;-78
2023/11/20 01:57:34;;;;;;;3.60;0.77;;;;;;;8.81;100.00;92874.69;2055830;28;20089;-79
2023/11/20 01:58:36;;;;;;;2.60;0.88;;;;;;;8.73;100.00;92893.91;2061646;28;20233;-77
2023/11/20 01:59:38;;;;;;;3.10;0.70;;;;;;;8.91;100.00;92877.56;2079759;27;20027;-78
2023/11/20 02:00:39;;;;;;;3.42;0.88;;;;;;;8.93;100.00;92889.34;2086376;27;20030;-77
2023/11/20 02:01:40;;;;;;;4.35;0.90;;;;;;;8.88;100.00;92883.75;2087598;27;20054;-77
2023/11/20 02:02:42;;;;;;;4.13;0.82;;;;;;;8.83;100.00;92879.66;2093133;27;20061;-77
2023/11/20 02:03:43;;;;;;;3.40;0.90;;;;;;;8.69;100.00;92888.66;2093216;27;20023;-78
2023/11/20 02:04:50;;;;;;;6.72;1.10;;;;;;;8.65;100.00;92887.97;2098365;27;20023;-77
2023/11/20 02:05:51;;;;;;;3.80;1.17;;;;;;;8.62;100.00;92886.13;2112993;27;20034;-80
2023/11/20 02:06:52;;;;;;;3.45;0.95;;;;;;;8.63;100.00;92890.28;2105847;28;20027;-78
2023/11/20 02:07:53;;;;;;;2.65;0.90;;;;;;;8.68;100.00;92886.38;2105958;28;20101;-78
2023/11/20 02:08:54;;;;;;;4.03;0.80;;;;;;;8.54;100.00;92887.41;2114328;28;20034;-79
2023/11/20 02:09:56;;;;;;;1.85;0.75;;;;;;;8.91;100.00;92893.56;2106067;28;20352;-77
2023/11/20 02:11:00;;;;;;;3.22;1.02;;;;;;;8.94;100.00;92893.50;2097601;28;20493;-78
2023/11/20 02:12:01;;;;;;;3.25;0.98;;;;;;;8.82;100.00;92886.88;2098074;28;20541;-79
2023/11/20 02:13:04;;;;;;;4.32;0.85;;;;;;;8.85;100.00;92885.31;2105619;28;20596;-78
2023/11/20 02:14:05;;;;;;;7.18;1.23;;;;;;;8.84;100.00;92891.81;2114932;28;20026;-77
2023/11/20 02:15:06;;;;;;;5.95;0.98;;;;;;;8.85;100.00;92892.56;2114726;28;20019;-77
2023/11/20 02:16:07;;;;;;;4.78;1.33;;;;;;;8.77;100.00;92884.69;2114825;28;20031;-77
2023/11/20 02:17:08;;;;;;;3.25;0.98;;;;;;;8.91;100.00;92894.34;2115068;28;20045;-79
2023/11/20 02:18:29;;;;;;;3.72;0.82;;;;;;;8.86;100.00;92894.03;2114232;28;20450;-77
2023/11/20 02:19:30;;;;;;;5.93;1.00;;;;;;;8.96;100.00;92891.19;2122981;27;20046;-78
2023/11/20 02:20:31;;;;;;;3.03;0.75;;;;;;;8.89;100.00;92890.56;2123354;27;20065;-78
2023/11/20 02:21:32;;;;;;;3.53;0.90;;;;;;;8.99;100.00;92890.34;2118004;27;20057;-79
2023/11/20 02:24:21;;;;;;;;;;;;;;;8.35;100.00;92896.84;2138192;27;20173;-78
2023/11/20 02:25:30;;;;;;;2.38;0.70;;;;;;;8.24;100.00;92902.31;2121664;28;19939;-79
2023/11/20 02:26:57;;;;;;;4.45;0.90;;;;;;;8.28;100.00;92899.59;2122919;27;20053;-78
2023/11/20 02:28:21;;;;;;;4.38;1.15;;;;;;;8.51;100.00;92899.59;2130668;27;20467;-79
2023/11/20 02:29:27;;;;;;;5.10;0.90;;;;;;;8.32;100.00;92908.28;2125796;27;20023;-78
2023/11/20 02:30:30;;;;;;;3.75;0.90;;;;;;;8.37;100.00;92894.53;2129428;27;20467;-79
2023/11/20 02:31:33;;;;;;;3.75;0.90;;;;;;;8.29;100.00;92883.22;2126109;27;20016;-79
2023/11/20 02:32:34;;;;;;;3.88;0.82;;;;;;;8.20;100.00;92885.66;2123574;27;20022;-79
2023/11/20 02:33:39;;;;;;;2.72;0.73;;;;;;;8.28;100.00;92889.69;2125403;27;20442;-78
2023/11/20 02:34:39;;;;;;;2.78;0.90;;;;;;;8.28;100.00;92886.28;2124392;27;20019;-78
2023/11/20 02:35:40;;;;;;;3.30;1.33;;;;;;;8.22;100.00;92878.03;2117011;28;20027;-80
2023/11/20 02:36:41;;;;;;;3.40;0.80;;;;;;;8.21;100.00;92881.06;2068855;27;20031;-79
2023/11/20 02:37:43;;;;;;;3.47;0.80;;;;;;;8.29;100.00;92877.88;2059441;27;20103;-78
2023/11/20 02:38:44;;;;;;;2.50;0.63;;;;;;;8.53;100.00;92888.56;2060743;27;20029;-77
2023/11/20 02:39:49;;;;;;;1.45;0.60;;;;;;;8.64;100.00;92899.00;2065998;27;20045;-79
2023/11/20 02:40:50;;;;;;;3.90;0.70;;;;;;;8.56;100.00;92890.41;2069771;27;20153;-78
2023/11/20 02:41:51;;;;;;;2.17;0.60;;;;;;;8.50;100.00;92892.03;2065774;28;20035;-79
2023/11/20 02:42:52;;;;;;;4.28;1.00;;;;;;;8.36;100.00;92884.25;2071794;27;20031;-79
2023/11/20 02:43:53;;;;;;;3.72;0.90;;;;;;;8.34;100.00;92887.34;2074673;27;20118;-77
2023/11/20 02:44:54;;;;;;;6.70;0.90;;;;;;;8.32;100.00;92881.66;2075946;28;20114;-79
2023/11/20 02:45:57;;;;;;;4.00;0.90;;;;;;;8.15;100.00;92880.03;2075899;27;20073;-78
2023/11/20 02:46:58;;;;;;;2.83;1.00;;;;;;;8.26;100.00;92884.03;2093144;27;20031;-77
2023/11/20 02:48:00;;;;;;;6.93;0.90;;;;;;;8.12;100.00;92886.94;2098846;27;20034;-78
2023/11/20 02:49:01;;;;;;;2.80;0.70;;;;;;;8.04;100.00;92886.31;2102801;27;20150;-78
2023/11/20 02:50:02;;;;;;;4.32;0.88;;;;;;;8.01;100.00;92875.72;2107990;27;23082;-77
2023/11/20 02:51:04;;;;;;;3.13;0.80;;;;;;;8.05;100.00;92874.50;2113748;27;20030;-78
2023/11/20 02:52:06;;;;;;;2.30;0.68;;;;;;;7.99;100.00;92886.75;2125965;27;20029;-79
2023/11/20 02:53:07;;;;;;;4.75;0.85;;;;;;;8.01;100.00;92887.09;2129639;27;20018;-78
2023/11/20 02:54:08;;;;;;;3.13;0.70;;;;;;;8.00;100.00;92882.94;2129953;27;20091;-79
2023/11/20 02:55:09;;;;;;;5.60;1.05;;;;;;;7.90;100.00;92885.75;2121514;28;20855;-78
2023/11/20 02:56:10;;;;;;;2.03;0.85;;;;;;;7.80;100.00;92890.84;2121418;27;20050;-79
2023/11/20 02:57:11;;;;;;;6.22;1.10;;;;;;;8.03;100.00;92892.78;2129831;27;20915;-79
2023/11/20 02:58:12;;;;;;;5.45;1.25;;;;;;;7.97;100.00;92883.00;2129900;27;20436;-78
2023/11/20 02:59:13;;;;;;;3.65;1.00;;;;;;;7.80;100.00;92882.09;2129803;27;20067;-78
2023/11/20 03:00:14;;;;;;;5.75;0.93;;;;;;;7.71;100.00;92881.88;2121447;27;20047;-78
2023/11/20 03:01:15;;;;;;;4.57;1.17;;;;;;;8.03;100.00;92892.00;2121397;27;20023;-77
2023/11/20 03:02:16;;;;;;;2.80;0.95;;;;;;;8.15;100.00;92885.38;2121228;28;20057;-79
2023/11/20 03:03:17;;;;;;;3.47;1.00;;;;;;;8.09;100.00;92885.09;2129868;27;20026;-77
2023/11/20 03:04:18;;;;;;;8.25;1.33;;;;;;;8.12;100.00;92880.84;2130097;27;20064;-78
2023/11/20 03:05:19;;;;;;;4.85;1.40;;;;;;;8.01;100.00;92884.44;2129335;27;20098;-78
2023/11/20 03:06:47;;;;;;;6.45;1.00;;;;;;;8.02;100.00;92867.31;2127767;27;20026;-78
2023/11/20 03:07:48;;;;;;;5.35;1.45;;;;;;;7.98;100.00;92871.94;2116426;28;20032;-77
2023/11/20 03:08:50;;;;;;;3.35;1.05;;;;;;;8.27;100.00;92882.13;2129043;27;20026;-78
2023/11/20 03:09:51;;;;;;;6.15;0.90;;;;;;;8.03;100.00;92886.69;2130289;27;20423;-79
2023/11/20 03:10:52;;;;;;;2.85;0.98;;;;;;;8.00;100.00;92880.28;2129665;27;20065;-77
2023/11/20 03:11:53;;;;;;;4.72;1.10;;;;;;;8.09;100.00;92874.44;2129618;27;20624;-78
2023/11/20 03:12:54;;;;;;;3.75;0.95;;;;;;;8.03;100.00;92873.38;2130244;27;20023;-79
2023/11/20 03:13:55;;;;;;;1.42;0.70;;;;;;;7.93;100.00;92863.66;2130003;27;20015;-79
2023/11/20 03:14:56;;;;;;;5.40;1.10;;;;;;;7.87;100.00;92868.69;2121360;27;20023;-78
2023/11/20 03:15:57;;;;;;;3.60;0.90;;;;;;;7.76;100.00;92857.47;2121379;27;20113;-78
2023/11/20 03:16:58;;;;;;;6.95;1.20;;;;;;;7.84;100.00;92866.84;2120420;28;20499;-78
2023/11/20 03:18:00;;;;;;;3.08;1.33;;;;;;;7.71;100.00;92871.97;2129666;27;20025;-77
2023/11/20 03:19:01;;;;;;;4.43;1.00;;;;;;;7.54;100.00;92881.72;2129712;27;20067;-78
2023/11/20 03:20:02;;;;;;;5.82;0.98;;;;;;;7.66;100.00;92866.34;2121262;28;20024;-77
2023/11/20 03:21:03;;;;;;;7.32;0.70;;;;;;;7.85;100.00;92870.25;2129638;27;20023;-78
2023/11/20 03:22:04;;;;;;;3.53;0.98;;;;;;;7.76;100.00;92858.22;2130469;27;20023;-79
2023/11/20 03:23:05;;;;;;;2.28;0.85;;;;;;;7.67;100.00;92865.19;2130043;27;20102;-78
2023/11/20 03:24:07;;;;;;;3.13;1.02;;;;;;;7.83;100.00;92860.78;2129481;27;20111;-78
2023/11/20 03:25:08;;;;;;;3.72;1.00;;;;;;;7.96;100.00;92857.53;2121318;27;20395;-77
2023/11/20 03:26:09;;;;;;;3.92;0.80;;;;;;;8.00;100.00;92855.56;2112849;28;20085;-78
2023/11/20 03:27:33;;;;;;;4.85;1.00;;;;;;;8.03;100.00;92860.84;2112790;27;20027;-78
2023/11/20 03:28:36;;;;;;;1.70;0.63;;;;;;;7.95;100.00;92862.13;2124348;27;20433;-77
2023/11/20 03:29:37;;;;;;;4.85;1.00;;;;;;;8.17;100.00;92867.09;2120620;27;20031;-77
2023/11/20 03:30:38;;;;;;;1.42;0.65;;;;;;;8.01;100.00;92863.16;2129570;27;20030;-78
2023/11/20 03:31:39;;;;;;;4.68;0.93;;;;;;;7.81;100.00;92863.09;2129587;27;20098;-77
2023/11/20 03:32:40;;;;;;;6.32;3.00;;;;;;;7.79;100.00;92872.63;2115513;28;20023;-76
2023/11/20 03:33:42;;;;;;;5.05;1.00;;;;;;;7.80;100.00;92877.53;2121019;28;20011;-77
2023/11/20 03:34:43;;;;;;;4.00;0.88;;;;;;;7.99;100.00;92876.13;2129580;27;20031;-79
2023/11/20 03:35:44;;;;;;;3.70;1.00;;;;;;;8.16;100.00;92868.97;2115251;28;20058;-78
2023/11/20 03:36:45;;;;;;;5.20;0.95;;;;;;;8.04;100.00;92865.00;2113413;28;20455;-78
2023/11/20 03:37:46;;;;;;;4.18;1.00;;;;;;;8.13;100.00;92864.47;2122082;27;20026;-78
2023/11/20 03:38:47;;;;;;;3.97;1.05;;;;;;;8.17;100.00;92867.09;2109421;28;20070;-77
2023/11/20 03:39:48;;;;;;;4.15;0.95;;;;;;;8.30;100.00;92860.78;2115339;28;20027;-77
2023/11/20 03:40:49;;;;;;;5.47;1.00;;;;;;;8.22;100.00;92856.72;2121949;27;20109;-77
2023/11/20 03:41:50;;;;;;;5.15;0.93;;;;;;;8.07;100.00;92856.19;2106129;28;20031;-78
2023/11/20 03:42:51;;;;;;;4.45;1.00;;;;;;;8.12;100.00;92857.66;2098904;28;20036;-77
2023/11/20 03:43:52;;;;;;;8.65;1.20;;;;;;;8.01;100.00;92852.50;2115406;28;20440;-77
2023/11/20 03:44:53;;;;;;;3.97;0.82;;;;;;;7.98;100.00;92855.97;2123498;27;20379;-77
2023/11/20 03:45:55;;;;;;;5.40;1.00;;;;;;;8.04;100.00;92862.34;2123727;27;20030;-79
2023/11/20 03:46:56;;;;;;;2.17;1.00;;;;;;;8.08;100.00;92855.06;2123679;27;20024;-79
2023/11/20 03:47:57;;;;;;;6.85;1.15;;;;;;;8.01;100.00;92859.72;2124388;27;20027;-77
2023/11/20 03:48:58;;;;;;;4.22;1.42;;;;;;;7.92;100.00;92862.16;2124451;27;20102;-79
2023/11/20 03:49:59;;;;;;;2.45;0.88;;;;;;;7.83;100.00;92855.44;2124306;27;20498;-79
2023/11/20 03:51:04;;;;;;;5.20;0.75;;;;;;;7.73;100.00;92863.59;2121459;27;20027;-78
2023/11/20 03:52:05;;;;;;;4.30;0.95;;;;;;;7.86;100.00;92859.22;2115291;28;20023;-79
2023/11/20 03:53:06;;;;;;;6.68;1.13;;;;;;;8.02;100.00;92867.31;2115234;28;20368;-77
2023/11/20 03:54:08;;;;;;;4.18;1.02;;;;;;;8.12;100.00;92857.66;2114647;28;20116;-80
2023/11/20 03:55:09;;;;;;;5.13;0.90;;;;;;;8.18;100.00;92869.34;2122804;27;20120;-79
2023/11/20 03:56:12;;;;;;;5.78;1.23;;;;;;;8.12;100.00;92863.00;2124366;27;20460;-78
2023/11/20 03:57:13;;;;;;;6.95;1.15;;;;;;;8.29;100.00;92861.16;2124282;27;20376;-77
2023/11/20 03:58:14;;;;;;;4.45;1.00;;;;;;;8.47;100.00;92856.31;2123900;27;20069;-78
2023/11/20 03:59:15;;;;;;;10.50;1.25;;;;;;;8.47;100.00;92869.63;2115268;28;20028;-77
2023/11/20 04:00:17;;;;;;;4.13;0.90;;;;;;;8.35;100.00;92859.56;2115399;28;20024;-78
2023/11/20 04:01:18;;;;;;;5.72;1.65;;;;;;;8.38;100.00;92858.00;2115258;28;20015;-78
2023/11/20 04:02:19;;;;;;;6.55;1.10;;;;;;;8.30;100.00;92854.69;2115654;28;20019;-78
2023/11/20 04:03:20;;;;;;;6.75;1.05;;;;;;;8.30;100.00;92857.34;2115771;28;20015;-78
2023/11/20 04:04:21;;;;;;;5.43;1.20;;;;;;;8.20;100.00;92855.63;2119822;27;20053;-77
2023/11/20 04:05:22;;;;;;;3.40;0.82;;;;;;;8.41;100.00;92843.88;2114661;28;20081;-77
2023/11/20 04:06:23;;;;;;;3.88;1.23;;;;;;;8.40;100.00;92840.47;2114469;28;20628;-78
2023/11/20 04:07:24;;;;;;;5.50;1.10;;;;;;;8.47;100.00;92844.91;2114920;28;20063;-79
2023/11/20 04:08:25;;;;;;;3.25;1.13;;;;;;;8.30;100.00;92831.47;2106693;28;20484;-78
2023/11/20 04:09:26;;;;;;;3.97;0.98;;;;;;;8.15;100.00;92838.19;2116031;27;20456;-77
2023/11/20 04:10:27;;;;;;;4.32;0.90;;;;;;;8.05;100.00;92839.13;2115171;28;20031;-78
2023/11/20 04:11:28;;;;;;;7.50;1.65;;;;;;;7.93;100.00;92845.03;2098304;28;20034;-79
2023/11/20 04:12:29;;;;;;;7.28;1.30;;;;;;;7.90;100.00;92838.63;2106706;28;20022;-78
2023/11/20 04:13:30;;;;;;;3.95;1.02;;;;;;;7.97;100.00;92841.16;2123678;27;20090;-79
2023/11/20 04:14:31;;;;;;;5.68;1.05;;;;;;;7.98;100.00;92849.88;2124185;27;20015;-79
2023/11/20 04:15:32;;;;;;;3.63;0.90;;;;;;;7.97;100.00;92851.81;2124272;27;20022;-78
2023/11/20 04:16:33;;;;;;;4.97;1.02;;;;;;;7.87;100.00;92852.00;2123541;27;20023;-78
2023/11/20 04:17:34;;;;;;;5.47;0.90;;;;;;;7.91;100.00;92839.38;2122654;27;20022;-79
2023/11/20 04:18:35;;;;;;;4.13;0.80;;;;;;;7.79;100.00;92843.34;2123493;27;20031;-79
2023/11/20 04:19:36;;;;;;;4.80;0.80;;;;;;;8.05;100.00;92847.13;2115161;27;20016;-77
2023/11/20 04:20:37;;;;;;;4.32;1.10;;;;;;;7.91;100.00;92842.03;2114967;27;20028;-77
2023/11/20 04:21:38;;;;;;;5.28;0.82;;;;;;;7.68;100.00;92846.19;2123421;27;20596;-78
2023/11/20 04:22:39;;;;;;;4.63;1.13;;;;;;;7.58;100.00;92853.16;2124076;27;20031;-78
2023/11/20 04:23:40;;;;;;;5.70;1.00;;;;;;;7.49;100.00;92847.59;2123175;27;20123;-78
2023/11/20 04:24:41;;;;;;;6.40;0.90;;;;;;;7.50;100.00;92846.44;2115149;28;20114;-79
2023/11/20 04:25:42;;;;;;;3.20;0.80;;;;;;;7.41;100.00;92858.72;2123525;27;20023;-78
2023/11/20 04:26:43;;;;;;;4.90;1.00;;;;;;;7.42;100.00;92863.66;2124346;27;20038;-79
2023/11/20 04:27:44;;;;;;;3.13;0.93;;;;;;;7.51;100.00;92869.22;2124092;27;20026;-77
2023/11/20 04:28:45;;;;;;;2.45;0.82;;;;;;;7.52;100.00;92857.44;2123436;27;20111;-78
2023/11/20 04:29:46;;;;;;;5.95;1.13;;;;;;;7.38;100.00;92862.97;2122633;27;20026;-78
2023/11/20 04:30:47;;;;;;;5.22;0.90;;;;;;;7.32;100.00;92861.88;2124031;27;20068;-77
2023/11/20 04:31:48;;;;;;;5.03;1.00;;;;;;;7.32;100.00;92867.94;2124038;27;20054;-77
2023/11/20 04:32:49;;;;;;;3.10;1.05;;;;;;;7.30;100.00;92864.22;2123319;27;20054;-78
2023/11/20 04:33:50;;;;;;;6.10;1.17;;;;;;;7.42;100.00;92868.22;2114943;27;20039;-78
2023/11/20 04:34:51;;;;;;;3.15;1.15;;;;;;;7.37;100.00;92868.66;2115114;28;20447;-78
2023/11/20 04:35:54;;;;;;;3.83;1.05;;;;;;;7.34;100.00;92867.56;2115012;28;20024;-79
2023/11/20 04:36:55;;;;;;;2.88;0.93;;;;;;;7.28;100.00;92872.56;2116394;27;20464;-77
2023/11/20 04:37:56;;;;;;;4.80;1.00;;;;;;;7.21;100.00;92863.94;2106455;28;20024;-78
2023/11/20 04:38:57;;;;;;;3.13;0.90;;;;;;;7.68;100.00;92869.34;2109190;28;20059;-79
2023/11/20 04:39:58;;;;;;;6.43;0.95;;;;;;;7.65;100.00;92862.94;2106620;28;20028;-78
2023/11/20 04:40:59;;;;;;;4.40;0.85;;;;;;;7.58;100.00;92860.38;2107417;28;20028;-78
2023/11/20 04:42:00;;;;;;;3.95;1.10;;;;;;;7.50;100.00;92858.97;2114121;28;20023;-79
2023/11/20 04:43:01;;;;;;;4.28;0.93;;;;;;;7.54;100.00;92862.34;2123152;27;20064;-77
2023/11/20 04:44:02;;;;;;;4.10;0.75;;;;;;;7.50;100.00;92856.31;2114835;28;20072;-80
2023/11/20 04:45:03;;;;;;;5.55;0.88;;;;;;;7.48;100.00;92863.97;2114012;28;20028;-78
2023/11/20 04:46:09;;;;;;;4.25;1.10;;;;;;;7.59;100.00;92859.22;2123465;27;20020;-78
2023/11/20 04:47:10;;;;;;;3.55;1.17;;;;;;;7.44;100.00;92856.03;2122346;27;20027;-78
2023/11/20 04:48:11;;;;;;;7.63;1.00;;;;;;;7.43;100.00;92867.06;2123019;27;20102;-79
2023/11/20 04:49:12;;;;;;;6.53;0.95;;;;;;;7.52;100.00;92854.78;2123305;27;20019;-79
2023/11/20 04:50:13;;;;;;;5.28;0.93;;;;;;;7.60;100.00;92852.03;2123856;27;20034;-77
2023/11/20 04:51:21;;;;;;;3.72;1.30;;;;;;;7.56;100.00;92846.75;2123754;27;20058;-79
2023/11/20 04:52:22;;;;;;;4.60;1.13;;;;;;;7.45;100.00;92849.53;2114705;28;20027;-79
2023/11/20 04:53:24;;;;;;;5.60;1.00;;;;;;;7.38;100.00;92854.97;2114802;28;20384;-78